Time;durP1;ratioP1;P1;durP2;ratioP2;P2;SDS_P1;SDS_P2;PMS_P1;PMS_P2;Temp;Humidity;BMP_temperature;BMP_pressure;BME280_temperature;BME280_humidity;BME280_pressure;Samples;Min_cycle;Max_cycle;Signal;HPM_P1;HPM_P2
2021/03/28 00:01:38;;;;;;;26.65;13.25;;;13.80;99.90;;;;;;5068217;28;20024;-74
2021/03/28 00:04:09;;;;;;;30.85;15.55;;;13.80;99.90;;;;;;5051123;28;20094;-77
2021/03/28 00:06:48;;;;;;;24.60;13.27;;;13.80;99.90;;;;;;5068133;28;20056;-76
2021/03/28 00:09:27;;;;;;;28.42;14.88;;;13.80;99.90;;;;;;5067579;28;20087;-76
2021/03/28 00:11:58;;;;;;;30.60;14.57;;;13.80;99.90;;;;;;5069630;28;20037;-75
2021/03/28 00:14:53;;;;;;;37.58;14.80;;;13.70;99.90;;;;;;5073700;28;20142;-79
2021/03/28 00:17:19;;;;;;;25.73;13.70;;;13.70;99.90;;;;;;5058988;28;20040;-75
2021/03/28 00:19:55;;;;;;;25.52;13.40;;;13.80;99.90;;;;;;5073814;28;20528;-75
2021/03/28 00:22:30;;;;;;;28.33;13.40;;;13.80;99.90;;;;;;5073317;28;20032;-76
2021/03/28 00:25:13;;;;;;;30.92;13.43;;;13.80;99.90;;;;;;5073930;28;20509;-75
2021/03/28 00:27:47;;;;;;;26.10;14.23;;;13.70;99.90;;;;;;5073491;28;20075;-77
2021/03/28 00:30:34;;;;;;;26.42;12.32;;;13.70;99.90;;;;;;5067508;28;20036;-76
2021/03/28 00:33:19;;;;;;;31.40;12.50;;;13.70;99.90;;;;;;5072276;28;20037;-78
2021/03/28 00:35:56;;;;;;;19.17;11.90;;;13.70;99.90;;;;;;5071197;28;20024;-78
2021/03/28 00:38:44;;;;;;;27.48;12.68;;;13.70;99.90;;;;;;5068674;28;20083;-77
2021/03/28 00:41:41;;;;;;;28.70;12.27;;;13.80;99.90;;;;;;5074181;28;20028;-75
2021/03/28 00:44:19;;;;;;;27.20;11.18;;;13.80;99.90;;;;;;5073714;28;20090;-78
2021/03/28 00:47:09;;;;;;;30.38;11.30;;;13.80;99.90;;;;;;5073648;28;20067;-76
2021/03/28 00:49:44;;;;;;;31.02;11.02;;;13.80;99.90;;;;;;5072905;28;20029;-77
2021/03/28 00:52:26;;;;;;;21.65;10.60;;;13.80;99.90;;;;;;5071291;28;20035;-77
2021/03/28 00:54:57;;;;;;;22.60;11.37;;;13.80;99.90;;;;;;5073328;28;20072;-77
2021/03/28 00:57:30;;;;;;;23.83;10.48;;;13.90;99.90;;;;;;5072399;28;20294;-79
2021/03/28 01:00:18;;;;;;;25.55;12.15;;;13.90;99.90;;;;;;5059650;28;20048;-75
2021/03/28 01:03:26;;;;;;;23.25;10.88;;;13.90;99.90;;;;;;5067249;28;20032;-79
2021/03/28 01:05:56;;;;;;;25.75;10.70;;;13.90;99.90;;;;;;5061527;28;20405;-80
2021/03/28 01:08:44;;;;;;;27.83;11.32;;;13.90;99.90;;;;;;5067581;28;20115;-75
2021/03/28 01:11:14;;;;;;;18.23;10.95;;;13.90;99.90;;;;;;5071141;28;20029;-74
2021/03/28 01:13:58;;;;;;;25.52;11.00;;;14.00;99.90;;;;;;5050408;28;20378;-78
2021/03/28 01:16:54;;;;;;;28.02;11.07;;;14.10;99.90;;;;;;5070490;28;20036;-76
2021/03/28 01:19:28;;;;;;;25.63;11.57;;;14.00;99.90;;;;;;5072655;28;20493;-73
2021/03/28 01:22:32;;;;;;;25.50;11.63;;;14.00;99.90;;;;;;5071840;28;20029;-74
2021/03/28 01:25:07;;;;;;;21.90;12.05;;;14.00;99.90;;;;;;5060902;28;20041;-74
2021/03/28 01:27:50;;;;;;;22.48;11.20;;;13.90;99.90;;;;;;5073130;28;20493;-73
2021/03/28 01:30:33;;;;;;;19.92;13.15;;;13.80;99.90;;;;;;5071029;28;20028;-73
2021/03/28 01:33:04;;;;;;;27.98;13.10;;;13.70;99.90;;;;;;5068387;28;20082;-73
2021/03/28 01:35:51;;;;;;;23.15;12.25;;;13.60;99.90;;;;;;5072285;28;20039;-75
2021/03/28 01:38:20;;;;;;;25.00;13.23;;;13.40;99.90;;;;;;5072679;28;20489;-74
2021/03/28 01:41:11;;;;;;;22.58;13.25;;;13.40;99.90;;;;;;5073092;28;20116;-73
2021/03/28 01:43:49;;;;;;;25.08;12.73;;;13.30;99.90;;;;;;5067834;28;20492;-74
2021/03/28 01:46:48;;;;;;;22.25;12.90;;;13.30;99.90;;;;;;5066061;28;20104;-76
2021/03/28 01:49:27;;;;;;;17.05;11.45;;;13.20;99.90;;;;;;5072911;28;20024;-74
2021/03/28 01:52:13;;;;;;;22.85;12.73;;;13.20;99.90;;;;;;5071581;28;20496;-73
2021/03/28 01:54:48;;;;;;;23.85;12.57;;;13.20;99.90;;;;;;5072925;28;20066;-75
2021/03/28 01:57:32;;;;;;;28.05;13.27;;;13.20;99.90;;;;;;5070540;28;20063;-74
2021/03/28 01:59:58;;;;;;;25.20;13.52;;;13.20;99.90;;;;;;5070216;28;20060;-74
2021/03/28 02:02:32;;;;;;;31.50;13.27;;;13.20;99.90;;;;;;5067923;28;20492;-74
2021/03/28 02:05:35;;;;;;;26.10;14.48;;;13.20;99.90;;;;;;5049549;28;20043;-78
2021/03/28 02:08:28;;;;;;;24.98;14.27;;;13.10;99.90;;;;;;5072011;28;20036;-74
2021/03/28 02:11:03;;;;;;;21.25;13.27;;;13.00;99.90;;;;;;5061581;28;20558;-75
2021/03/28 02:13:56;;;;;;;27.95;15.13;;;13.00;99.90;;;;;;5061957;28;20474;-74
2021/03/28 02:16:44;;;;;;;22.85;13.35;;;13.00;99.90;;;;;;5064910;28;20040;-73
2021/03/28 02:19:23;;;;;;;23.17;13.07;;;13.00;99.90;;;;;;5058758;28;20031;-73
2021/03/28 02:22:23;;;;;;;29.50;14.68;;;13.00;99.90;;;;;;5071898;28;20036;-73
2021/03/28 02:24:55;;;;;;;23.80;13.35;;;12.90;99.90;;;;;;5072448;28;20466;-75
2021/03/28 02:27:29;;;;;;;35.45;14.07;;;12.90;99.90;;;;;;5071945;28;20037;-73
2021/03/28 02:30:10;;;;;;;24.35;13.90;;;12.90;99.90;;;;;;5072446;28;20028;-74
2021/03/28 02:33:06;;;;;;;19.57;13.07;;;12.90;99.90;;;;;;5065414;28;20032;-75
2021/03/28 02:36:04;;;;;;;22.40;13.02;;;12.90;99.90;;;;;;5061056;28;20029;-74
2021/03/28 02:38:57;;;;;;;24.85;13.80;;;12.90;99.90;;;;;;5072316;28;20098;-74
2021/03/28 02:41:45;;;;;;;29.50;13.68;;;12.90;99.90;;;;;;5068489;28;20033;-74
2021/03/28 02:44:30;;;;;;;23.27;14.32;;;13.00;99.90;;;;;;5053458;28;20453;-73
2021/03/28 02:47:12;;;;;;;34.80;14.43;;;13.00;99.90;;;;;;5071921;28;20036;-74
2021/03/28 02:49:38;;;;;;;31.33;13.38;;;12.90;99.90;;;;;;5072148;28;20036;-73
2021/03/28 02:52:12;;;;;;;28.67;12.77;;;12.90;99.90;;;;;;5071322;28;20497;-74
2021/03/28 02:54:56;;;;;;;25.08;12.77;;;12.90;99.90;;;;;;5070698;28;20404;-75
2021/03/28 02:57:41;;;;;;;19.10;12.65;;;12.90;99.90;;;;;;5071753;28;20040;-74
2021/03/28 03:00:28;;;;;;;20.92;12.45;;;12.90;99.90;;;;;;5060138;28;20036;-73
2021/03/28 03:03:06;;;;;;;27.35;12.65;;;13.00;99.90;;;;;;5064852;28;20036;-75
2021/03/28 03:05:50;;;;;;;22.35;12.43;;;13.00;99.90;;;;;;5058178;28;20032;-75
2021/03/28 03:08:29;;;;;;;25.15;13.35;;;13.00;99.90;;;;;;5071143;28;20053;-78
2021/03/28 03:11:07;;;;;;;20.63;14.65;;;13.00;99.90;;;;;;5071643;28;20032;-79
2021/03/28 03:13:54;;;;;;;25.00;13.63;;;12.90;99.90;;;;;;5062131;28;20037;-79
2021/03/28 03:16:54;;;;;;;22.05;14.63;;;12.90;99.90;;;;;;5062517;28;20049;-78
2021/03/28 03:19:34;;;;;;;30.67;13.68;;;12.90;99.90;;;;;;5059796;28;20545;-75
2021/03/28 03:22:30;;;;;;;31.60;14.70;;;12.90;99.90;;;;;;5071260;28;20028;-78
2021/03/28 03:25:16;;;;;;;27.17;13.75;;;12.90;99.90;;;;;;5063950;28;20053;-76
2021/03/28 03:27:57;;;;;;;31.60;14.70;;;12.90;99.90;;;;;;5058988;28;20107;-76
2021/03/28 03:31:08;;;;;;;21.55;13.20;;;12.90;99.90;;;;;;5071307;28;20033;-77
2021/03/28 03:33:59;;;;;;;28.75;13.07;;;12.90;99.90;;;;;;5052788;28;20041;-76
2021/03/28 03:36:51;;;;;;;29.48;14.27;;;12.90;99.90;;;;;;5060267;28;20051;-75
2021/03/28 03:39:41;;;;;;;23.48;12.95;;;13.00;99.90;;;;;;5071300;28;20094;-77
2021/03/28 03:42:25;;;;;;;28.70;14.15;;;13.00;99.90;;;;;;5070456;28;20806;-76
2021/03/28 03:45:18;;;;;;;21.52;13.63;;;13.00;99.90;;;;;;5059756;28;20040;-75
2021/03/28 03:48:08;;;;;;;34.13;15.25;;;13.00;99.90;;;;;;5067581;28;20112;-75
2021/03/28 03:51:08;;;;;;;25.48;13.95;;;12.90;99.90;;;;;;5075012;28;20033;-75
2021/03/28 03:53:46;;;;;;;30.30;15.38;;;12.90;99.90;;;;;;5039357;28;20056;-78
2021/03/28 03:56:21;;;;;;;29.67;15.68;;;12.90;99.90;;;;;;5072801;28;20099;-79
2021/03/28 03:59:23;;;;;;;28.33;15.80;;;12.90;99.90;;;;;;5067202;28;20055;-79
2021/03/28 04:02:03;;;;;;;21.83;14.73;;;12.90;99.90;;;;;;5055741;28;20025;-80
2021/03/28 04:04:35;;;;;;;25.80;15.48;;;12.90;99.90;;;;;;5057263;28;20044;-78
2021/03/28 04:07:09;;;;;;;30.67;17.67;;;12.90;99.90;;;;;;5072029;28;20048;-81
2021/03/28 04:10:12;;;;;;;29.70;16.40;;;12.90;99.90;;;;;;5075288;28;20493;-81
2021/03/28 04:12:56;;;;;;;37.30;16.42;;;12.90;99.90;;;;;;5072097;28;20481;-78
2021/03/28 04:15:34;;;;;;;25.13;15.80;;;12.90;99.90;;;;;;5068175;28;20037;-78
2021/03/28 04:18:26;;;;;;;23.60;15.70;;;12.90;99.90;;;;;;5062844;28;20076;-79
2021/03/28 04:20:56;;;;;;;26.55;16.08;;;12.90;99.90;;;;;;5074667;28;20067;-77
2021/03/28 04:24:00;;;;;;;31.77;15.68;;;12.90;99.90;;;;;;5063634;28;20037;-79
2021/03/28 04:26:51;;;;;;;23.65;15.85;;;12.90;99.90;;;;;;5036234;28;20751;-78
2021/03/28 04:29:17;;;;;;;24.40;16.60;;;13.00;99.90;;;;;;5070352;28;20067;-78
2021/03/28 04:31:58;;;;;;;27.40;16.98;;;13.00;99.90;;;;;;5074234;28;20028;-79
2021/03/28 04:34:35;;;;;;;25.17;15.60;;;12.90;99.90;;;;;;5070332;28;20430;-79
2021/03/28 04:37:38;;;;;;;26.92;17.02;;;13.00;99.90;;;;;;5068784;28;20116;-78
2021/03/28 04:40:25;;;;;;;24.98;17.17;;;13.00;99.90;;;;;;5068076;28;20433;-78
2021/03/28 04:43:12;;;;;;;28.40;18.10;;;13.00;99.90;;;;;;5065054;28;20033;-78
2021/03/28 04:45:38;;;;;;;27.80;16.50;;;13.00;99.90;;;;;;5063109;28;20362;-79
2021/03/28 04:48:24;;;;;;;26.35;17.23;;;12.90;99.90;;;;;;5073615;28;20043;-77
2021/03/28 04:51:35;;;;;;;27.67;16.92;;;12.90;99.90;;;;;;5062175;28;20033;-80
2021/03/28 04:54:19;;;;;;;26.27;16.65;;;12.80;99.90;;;;;;5050768;28;20045;-79
2021/03/28 04:57:03;;;;;;;24.63;15.63;;;12.80;99.90;;;;;;5063265;28;20045;-81
2021/03/28 04:59:41;;;;;;;27.30;16.35;;;12.70;99.90;;;;;;5059861;28;20027;-79
2021/03/28 05:02:28;;;;;;;28.15;16.25;;;12.70;99.90;;;;;;5073701;28;20451;-80
2021/03/28 05:05:15;;;;;;;24.02;17.33;;;12.60;99.90;;;;;;5070344;28;20083;-81
2021/03/28 05:08:12;;;;;;;25.55;16.30;;;12.50;99.90;;;;;;5070476;28;20033;-79
2021/03/28 05:11:04;;;;;;;24.33;15.98;;;12.60;99.90;;;;;;5067870;28;20500;-79
2021/03/28 05:13:54;;;;;;;27.05;16.00;;;12.60;99.90;;;;;;5065105;28;20040;-76
2021/03/28 05:16:46;;;;;;;23.50;14.65;;;12.60;99.90;;;;;;5071660;28;20036;-78
2021/03/28 05:19:40;;;;;;;24.17;16.27;;;12.60;99.90;;;;;;5073097;28;20044;-79
2021/03/28 05:22:27;;;;;;;26.80;15.73;;;12.70;99.90;;;;;;5072364;28;20033;-81
2021/03/28 05:25:17;;;;;;;23.73;15.70;;;12.70;99.90;;;;;;5073269;28;20112;-77
2021/03/28 05:28:10;;;;;;;23.23;16.27;;;12.70;99.90;;;;;;5062061;28;20029;-76
2021/03/28 05:30:46;;;;;;;27.05;15.43;;;12.80;99.90;;;;;;5073376;28;20035;-79
2021/03/28 05:33:59;;;;;;;26.77;16.20;;;12.80;99.90;;;;;;5072251;28;20086;-81
2021/03/28 05:37:09;;;;;;;22.52;15.27;;;12.80;99.90;;;;;;5071422;28;20119;-80
2021/03/28 05:40:00;;;;;;;20.25;15.15;;;12.90;99.90;;;;;;5032135;28;20036;-76
2021/03/28 05:42:50;;;;;;;20.95;15.20;;;13.00;99.90;;;;;;5072749;28;20078;-80
2021/03/28 05:45:53;;;;;;;29.75;15.18;;;13.10;99.90;;;;;;5069419;28;20040;-84
2021/03/28 05:48:49;;;;;;;24.15;14.75;;;13.20;99.90;;;;;;5069069;28;20094;-77
2021/03/28 05:51:33;;;;;;;22.23;15.23;;;13.50;99.90;;;;;;5066326;28;20079;-80
2021/03/28 05:54:36;;;;;;;21.35;14.60;;;13.90;99.90;;;;;;5067544;28;20448;-82
2021/03/28 05:57:13;;;;;;;30.27;14.25;;;14.10;99.90;;;;;;5071726;28;20036;-74
2021/03/28 06:00:00;;;;;;;21.30;13.55;;;14.40;99.90;;;;;;5072526;28;20037;-74
2021/03/28 06:03:00;;;;;;;20.50;13.23;;;14.70;99.90;;;;;;5069529;28;20075;-75
2021/03/28 06:05:48;;;;;;;28.85;12.23;;;15.00;99.90;;;;;;5057884;28;20071;-77
2021/03/28 06:08:14;;;;;;;24.70;12.35;;;15.40;99.90;;;;;;5068191;28;20033;-81
2021/03/28 06:11:01;;;;;;;18.52;10.80;;;15.70;99.90;;;;;;5063123;28;20311;-80
2021/03/28 06:13:42;;;;;;;20.15;11.45;;;16.10;99.90;;;;;;5067126;28;20040;-80
2021/03/28 06:16:26;;;;;;;18.88;10.60;;;16.40;99.90;;;;;;5068014;28;20033;-80
2021/03/28 06:19:10;;;;;;;17.02;10.80;;;16.50;99.90;;;;;;5071101;28;20749;-81
2021/03/28 06:21:57;;;;;;;23.77;10.35;;;16.40;99.90;;;;;;5072271;28;20032;-76
2021/03/28 06:24:57;;;;;;;22.25;10.23;;;16.30;99.90;;;;;;5065113;28;20044;-73
2021/03/28 06:27:55;;;;;;;20.00;11.23;;;16.20;99.90;;;;;;5069550;28;20039;-76
2021/03/28 06:30:48;;;;;;;23.75;10.48;;;16.00;99.90;;;;;;5072585;28;20444;-74
2021/03/28 06:33:28;;;;;;;20.35;10.77;;;15.90;99.90;;;;;;5069888;28;20040;-75
2021/03/28 06:36:31;;;;;;;16.55;10.48;;;15.70;99.90;;;;;;5072082;28;20043;-77
2021/03/28 06:39:25;;;;;;;18.00;10.68;;;15.50;99.90;;;;;;5071936;28;20068;-74
2021/03/28 06:42:03;;;;;;;17.25;11.18;;;15.40;99.90;;;;;;5072045;28;20040;-77
2021/03/28 06:45:13;;;;;;;19.05;11.70;;;15.30;99.90;;;;;;5070409;28;20043;-76
2021/03/28 06:47:41;;;;;;;18.98;11.38;;;15.20;99.90;;;;;;5070187;28;20090;-79
2021/03/28 06:50:22;;;;;;;21.63;11.93;;;15.10;99.90;;;;;;5071801;28;20035;-75
2021/03/28 06:53:07;;;;;;;16.50;11.48;;;15.00;99.90;;;;;;5062886;28;20064;-79
2021/03/28 06:55:41;;;;;;;22.75;12.65;;;14.90;99.90;;;;;;5066787;28;20045;-78
2021/03/28 06:58:45;;;;;;;20.92;11.48;;;15.00;99.90;;;;;;5071737;28;20068;-78
2021/03/28 07:01:38;;;;;;;22.30;12.45;;;15.00;99.90;;;;;;5060408;28;20032;-80
2021/03/28 07:04:41;;;;;;;22.45;11.63;;;15.10;99.90;;;;;;5060885;28;20734;-79
2021/03/28 07:07:36;;;;;;;18.35;11.77;;;15.20;99.90;;;;;;5064470;28;20032;-79
2021/03/28 07:10:31;;;;;;;21.08;11.95;;;15.40;99.90;;;;;;5069273;28;20044;-78
2021/03/28 07:13:35;;;;;;;18.38;10.95;;;15.50;99.90;;;;;;5059181;28;20055;-75
2021/03/28 07:16:37;;;;;;;16.17;10.55;;;15.50;99.90;;;;;;5068204;28;20037;-79
2021/03/28 07:19:20;;;;;;;17.90;11.43;;;15.70;99.90;;;;;;5071356;28;20040;-81
2021/03/28 07:22:00;;;;;;;25.33;10.80;;;15.70;99.90;;;;;;5068961;28;20051;-81
2021/03/28 07:24:49;;;;;;;17.80;10.18;;;15.70;99.90;;;;;;5068758;28;20047;-80
2021/03/28 07:27:47;;;;;;;15.25;9.38;;;15.70;99.90;;;;;;5071036;28;20052;-78
2021/03/28 07:30:43;;;;;;;21.73;10.57;;;15.70;99.90;;;;;;5063570;28;20037;-76
2021/03/28 07:33:39;;;;;;;21.48;10.48;;;15.60;99.90;;;;;;5060646;28;20040;-79
2021/03/28 07:36:42;;;;;;;17.20;9.25;;;15.60;99.90;;;;;;5071442;28;20367;-78
2021/03/28 07:39:24;;;;;;;20.88;10.63;;;15.60;99.90;;;;;;5059373;28;20516;-77
2021/03/28 07:42:27;;;;;;;15.38;9.95;;;15.60;99.90;;;;;;5062871;28;20048;-78
2021/03/28 07:45:20;;;;;;;20.73;10.48;;;15.50;99.90;;;;;;5064323;28;20105;-80
2021/03/28 07:48:13;;;;;;;19.50;9.82;;;15.50;99.90;;;;;;5061628;28;20048;-79
2021/03/28 07:51:16;;;;;;;21.08;9.82;;;15.60;99.90;;;;;;5064694;28;20025;-77
2021/03/28 07:54:01;;;;;;;18.13;9.50;;;15.60;99.90;;;;;;5072024;28;20574;-76
2021/03/28 07:56:54;;;;;;;16.77;9.02;;;15.70;99.90;;;;;;5057420;28;20079;-76
2021/03/28 07:59:37;;;;;;;18.63;9.70;;;15.80;99.90;;;;;;5071091;28;20141;-78
2021/03/28 08:02:18;;;;;;;27.48;9.95;;;15.80;99.90;;;;;;5070371;28;20029;-79
2021/03/28 08:05:13;;;;;;;18.27;9.52;;;15.80;99.90;;;;;;5071179;28;20040;-78
2021/03/28 08:07:46;;;;;;;21.80;9.40;;;15.80;99.90;;;;;;5061449;28;20036;-77
2021/03/28 08:10:36;;;;;;;20.50;9.27;;;15.80;99.90;;;;;;5066526;28;20037;-76
2021/03/28 08:13:44;;;;;;;18.98;9.75;;;15.90;99.90;;;;;;5077303;28;20047;-78
2021/03/28 08:16:28;;;;;;;21.10;9.43;;;15.90;99.90;;;;;;5068881;28;20111;-77
2021/03/28 08:19:18;;;;;;;20.02;9.20;;;15.90;99.90;;;;;;5069482;28;20119;-78
2021/03/28 08:22:25;;;;;;;16.20;9.40;;;15.90;99.90;;;;;;5067007;28;20381;-77
2021/03/28 08:25:26;;;;;;;24.98;9.98;;;15.90;99.90;;;;;;5063004;28;20035;-74
2021/03/28 08:28:16;;;;;;;17.38;9.73;;;15.90;99.90;;;;;;4977835;28;20077;-73
2021/03/28 08:31:09;;;;;;;16.38;9.25;;;15.90;99.90;;;;;;5066596;28;20041;-73
2021/03/28 08:33:40;;;;;;;19.40;10.02;;;15.90;99.90;;;;;;5082086;28;20047;-74
2021/03/28 08:36:29;;;;;;;20.00;10.05;;;15.90;99.90;;;;;;5073863;28;20027;-73
2021/03/28 08:39:45;;;;;;;21.67;9.52;;;15.90;99.90;;;;;;5064691;28;20104;-78
2021/03/28 08:43:05;;;;;;;16.02;9.27;;;16.00;99.90;;;;;;5036013;28;20048;-72
2021/03/28 08:46:08;;;;;;;21.98;10.77;;;16.10;99.90;;;;;;4996158;28;20033;-72
2021/03/28 08:48:40;;;;;;;19.50;9.38;;;16.10;99.90;;;;;;5062560;28;20171;-74
2021/03/28 08:51:16;;;;;;;24.38;10.32;;;16.10;99.90;;;;;;5056846;28;20617;-73
2021/03/28 08:53:58;;;;;;;18.27;10.48;;;16.10;99.90;;;;;;5089615;28;20051;-72
2021/03/28 08:56:50;;;;;;;19.77;10.20;;;16.10;99.90;;;;;;5091283;28;20040;-72
2021/03/28 08:59:35;;;;;;;24.38;10.93;;;16.10;99.90;;;;;;5077334;28;20052;-73
2021/03/28 09:02:07;;;;;;;20.50;10.43;;;16.20;99.90;;;;;;5074850;28;20029;-72
2021/03/28 09:04:47;;;;;;;15.88;9.60;;;16.20;99.90;;;;;;5055065;28;20024;-72
2021/03/28 09:07:26;;;;;;;20.98;9.68;;;16.20;99.90;;;;;;5072964;28;20037;-73
2021/03/28 09:10:04;;;;;;;20.52;9.90;;;16.30;99.90;;;;;;5071851;28;20062;-73
2021/03/28 09:12:33;;;;;;;18.77;9.13;;;16.40;99.90;;;;;;5076183;28;20067;-72
2021/03/28 09:15:21;;;;;;;21.77;8.73;;;16.50;99.90;;;;;;5070138;28;20036;-73
2021/03/28 09:18:17;;;;;;;22.08;8.32;;;16.60;99.90;;;;;;5063071;28;20055;-73
2021/03/28 09:21:02;;;;;;;13.40;8.98;;;16.60;99.90;;;;;;5072964;28;20048;-73
2021/03/28 09:23:42;;;;;;;22.05;8.10;;;16.70;99.90;;;;;;5072481;28;20044;-74
2021/03/28 09:26:28;;;;;;;18.98;9.15;;;16.80;99.90;;;;;;5068620;28;20024;-74
2021/03/28 09:29:12;;;;;;;17.65;9.25;;;16.90;99.90;;;;;;5066659;28;20722;-74
2021/03/28 09:31:38;;;;;;;24.15;9.18;;;17.00;99.90;;;;;;5069565;28;20511;-74
2021/03/28 09:34:22;;;;;;;17.50;8.93;;;17.10;99.90;;;;;;5071719;28;20036;-74
2021/03/28 09:37:16;;;;;;;17.75;8.75;;;17.40;99.90;;;;;;5071276;28;20033;-74
2021/03/28 09:39:47;;;;;;;19.30;9.13;;;17.60;99.90;;;;;;5070520;28;20055;-74
2021/03/28 09:42:52;;;;;;;15.27;7.60;;;17.70;99.90;;;;;;5073748;28;20130;-74
2021/03/28 09:45:39;;;;;;;13.60;7.22;;;17.90;99.90;;;;;;5074095;28;20075;-75
2021/03/28 09:48:31;;;;;;;19.48;7.90;;;18.00;99.90;;;;;;5066931;28;20043;-72
2021/03/28 09:51:19;;;;;;;22.65;8.40;;;17.90;99.90;;;;;;5072378;28;20489;-72
2021/03/28 09:54:12;;;;;;;12.13;6.93;;;17.80;99.90;;;;;;5070273;28;21221;-78
2021/03/28 09:57:09;;;;;;;19.10;7.35;;;17.70;99.90;;;;;;5058366;28;20044;-73
2021/03/28 10:00:23;;;;;;;17.17;7.45;;;17.70;99.90;;;;;;5067764;28;20052;-73
2021/03/28 10:03:22;;;;;;;15.35;7.05;;;17.70;99.90;;;;;;5030501;28;20042;-74
2021/03/28 10:05:49;;;;;;;13.20;7.15;;;17.60;99.90;;;;;;5055655;28;20028;-79
2021/03/28 10:08:18;;;;;;;14.02;6.50;;;17.50;99.90;;;;;;5070983;28;20078;-78
2021/03/28 10:11:04;;;;;;;13.07;7.65;;;17.40;99.90;;;;;;5071285;28;20040;-77
2021/03/28 10:13:45;;;;;;;16.65;7.32;;;17.40;99.90;;;;;;5070645;28;20037;-78
2021/03/28 10:16:19;;;;;;;15.73;7.53;;;17.30;99.90;;;;;;5068735;28;20099;-77
2021/03/28 10:19:17;;;;;;;18.13;6.80;;;17.30;99.90;;;;;;5069885;28;20052;-77
2021/03/28 10:21:49;;;;;;;23.23;8.23;;;17.30;99.90;;;;;;5070215;28;20029;-77
2021/03/28 10:24:36;;;;;;;18.30;8.45;;;17.30;99.90;;;;;;5071687;28;20067;-75
2021/03/28 10:27:22;;;;;;;16.15;7.78;;;17.30;99.90;;;;;;5071636;28;20028;-76
2021/03/28 10:30:09;;;;;;;20.40;8.35;;;17.30;99.90;;;;;;5072072;28;20473;-72
2021/03/28 10:33:12;;;;;;;18.05;8.57;;;17.30;99.90;;;;;;5071401;28;20499;-76
2021/03/28 10:36:00;;;;;;;14.23;7.78;;;17.40;99.90;;;;;;5070568;28;20366;-74
2021/03/28 10:38:54;;;;;;;16.17;8.38;;;17.30;99.90;;;;;;5070824;28;20051;-73
2021/03/28 10:41:41;;;;;;;19.88;9.65;;;17.40;99.90;;;;;;5071647;28;20036;-75
2021/03/28 10:44:16;;;;;;;17.30;7.40;;;17.40;99.90;;;;;;5071829;28;20051;-73
2021/03/28 10:47:15;;;;;;;18.50;7.40;;;17.40;99.90;;;;;;5069352;28;20037;-74
2021/03/28 10:50:15;;;;;;;13.00;7.10;;;17.40;99.90;;;;;;5068002;28;20115;-75
2021/03/28 10:52:53;;;;;;;16.60;10.05;;;17.50;99.90;;;;;;5060824;28;20123;-74
2021/03/28 10:55:57;;;;;;;16.95;9.57;;;17.50;99.90;;;;;;5070494;28;20503;-74
2021/03/28 10:58:37;;;;;;;14.43;7.70;;;17.60;99.90;;;;;;5067256;28;20453;-74
2021/03/28 11:01:40;;;;;;;14.70;6.88;;;17.70;99.90;;;;;;5065944;28;20051;-75
2021/03/28 11:04:20;;;;;;;17.65;8.35;;;17.70;99.90;;;;;;5069001;28;20036;-77
2021/03/28 11:07:20;;;;;;;13.25;8.27;;;17.70;99.90;;;;;;5068737;28;20509;-77
2021/03/28 11:10:02;;;;;;;15.68;8.18;;;17.70;99.90;;;;;;5066979;28;20032;-77
2021/03/28 11:13:05;;;;;;;13.45;7.20;;;17.60;99.90;;;;;;5070037;28;20507;-77
2021/03/28 11:15:46;;;;;;;12.85;7.68;;;17.60;99.90;;;;;;5067445;28;20051;-78
2021/03/28 11:18:53;;;;;;;14.10;7.65;;;17.50;99.90;;;;;;5069212;28;20071;-78
2021/03/28 11:21:57;;;;;;;10.55;6.85;;;17.50;99.90;;;;;;5037347;28;20064;-77
2021/03/28 11:24:51;;;;;;;20.52;7.20;;;17.40;99.90;;;;;;5068692;28;20036;-77
2021/03/28 11:27:35;;;;;;;11.55;6.15;;;17.40;99.90;;;;;;5070787;28;20024;-77
2021/03/28 11:30:39;;;;;;;13.02;7.32;;;17.50;99.90;;;;;;5069169;28;20036;-77
2021/03/28 11:33:29;;;;;;;12.35;7.15;;;17.50;99.90;;;;;;5068214;28;20040;-77
2021/03/28 11:35:55;;;;;;;9.93;6.72;;;17.40;99.90;;;;;;5069470;28;20032;-78
2021/03/28 11:38:20;;;;;;;15.07;7.40;;;17.40;99.90;;;;;;5070144;28;20041;-77
2021/03/28 11:41:11;;;;;;;11.02;7.13;;;17.40;99.90;;;;;;5068566;28;20103;-77
2021/03/28 11:43:40;;;;;;;14.95;6.60;;;17.40;99.90;;;;;;5069704;28;20036;-80
2021/03/28 11:46:06;;;;;;;11.25;6.57;;;17.30;99.90;;;;;;5069960;28;20032;-79
2021/03/28 11:48:44;;;;;;;10.88;7.05;;;17.20;99.90;;;;;;5070783;28;20035;-80
2021/03/28 11:51:33;;;;;;;11.13;8.57;;;17.10;99.90;;;;;;5068711;28;20075;-81
2021/03/28 11:54:15;;;;;;;22.55;10.63;;;17.00;99.90;;;;;;5031536;28;20048;-81
2021/03/28 11:56:59;;;;;;;23.02;12.48;;;16.80;99.90;;;;;;5069330;28;20039;-81
2021/03/28 11:59:31;;;;;;;17.52;10.75;;;16.60;99.90;;;;;;5068697;28;20044;-80
2021/03/28 12:02:01;;;;;;;10.32;7.05;;;16.50;99.90;;;;;;5069483;28;20039;-81
2021/03/28 12:04:34;;;;;;;9.23;6.00;;;16.40;99.90;;;;;;5069638;28;20033;-79
2021/03/28 12:07:25;;;;;;;10.02;6.55;;;16.30;99.90;;;;;;5067903;28;20041;-77
2021/03/28 12:10:00;;;;;;;12.10;5.80;;;16.10;99.90;;;;;;5069309;28;20039;-78
2021/03/28 12:12:47;;;;;;;7.53;5.50;;;16.00;99.90;;;;;;5071968;28;20167;-75
2021/03/28 12:15:44;;;;;;;7.80;5.72;;;16.10;99.90;;;;;;5072211;28;20044;-79
2021/03/28 12:18:25;;;;;;;12.10;5.85;;;16.30;99.90;;;;;;5072420;28;20042;-76
2021/03/28 12:21:03;;;;;;;7.40;5.90;;;16.40;99.90;;;;;;5072456;28;20658;-76
2021/03/28 12:23:40;;;;;;;10.88;5.70;;;16.40;99.90;;;;;;5072086;28;20052;-75
2021/03/28 12:26:14;;;;;;;12.40;5.50;;;16.50;99.90;;;;;;5072314;28;20521;-74
2021/03/28 12:28:48;;;;;;;9.95;5.45;;;16.50;99.90;;;;;;5073830;28;20031;-73
2021/03/28 12:31:27;;;;;;;9.80;6.07;;;16.60;99.90;;;;;;5075633;28;21776;-75
2021/03/28 12:34:03;;;;;;;10.20;5.75;;;16.60;99.90;;;;;;5053750;28;20111;-76
2021/03/28 12:36:58;;;;;;;11.45;5.88;;;16.70;99.90;;;;;;5051309;28;20043;-76
2021/03/28 12:39:36;;;;;;;10.63;6.00;;;16.80;99.90;;;;;;5068866;28;20435;-74
2021/03/28 12:42:02;;;;;;;15.43;5.68;;;16.90;99.90;;;;;;5072386;28;20032;-73
2021/03/28 12:44:39;;;;;;;11.15;6.20;;;17.00;99.90;;;;;;5073297;28;20040;-74
2021/03/28 12:47:16;;;;;;;10.45;5.85;;;17.10;99.90;;;;;;5070064;28;20043;-75
2021/03/28 12:49:46;;;;;;;9.20;5.15;;;17.00;99.90;;;;;;5047561;28;20033;-78
2021/03/28 12:52:12;;;;;;;10.52;5.63;;;16.80;99.90;;;;;;5071947;28;20029;-75
2021/03/28 12:55:00;;;;;;;16.08;6.20;;;16.80;99.90;;;;;;5072150;28;20051;-74
2021/03/28 12:57:31;;;;;;;10.85;6.18;;;16.80;99.90;;;;;;5045579;28;20068;-76
2021/03/28 13:00:20;;;;;;;11.05;6.40;;;16.90;99.90;;;;;;5069193;28;20032;-75
2021/03/28 13:02:48;;;;;;;13.70;6.10;;;16.90;99.90;;;;;;5071556;28;20043;-74
2021/03/28 13:05:49;;;;;;;11.80;6.38;;;17.00;99.90;;;;;;5070103;28;20034;-75
2021/03/28 13:08:23;;;;;;;10.30;6.00;;;17.00;99.90;;;;;;5015607;28;20043;-76
2021/03/28 13:10:59;;;;;;;11.63;6.05;;;16.70;99.90;;;;;;5066443;28;20051;-73
2021/03/28 13:13:26;;;;;;;8.45;5.30;;;16.60;99.90;;;;;;5067747;28;20116;-74
2021/03/28 13:15:58;;;;;;;9.32;5.38;;;16.70;99.90;;;;;;5070697;28;20520;-76
2021/03/28 13:18:32;;;;;;;8.82;5.20;;;16.80;99.90;;;;;;5069602;28;20044;-74
2021/03/28 13:21:19;;;;;;;9.27;5.60;;;16.90;99.90;;;;;;5071113;28;20067;-73
2021/03/28 13:23:48;;;;;;;11.32;6.88;;;16.90;99.90;;;;;;5070168;28;20551;-73
2021/03/28 13:26:22;;;;;;;13.63;6.35;;;16.90;99.90;;;;;;5072310;28;20032;-74
2021/03/28 13:28:57;;;;;;;10.98;6.75;;;16.90;99.90;;;;;;5071569;28;20028;-74
2021/03/28 13:31:24;;;;;;;8.95;5.68;;;17.00;99.90;;;;;;5057911;28;20098;-74
2021/03/28 13:33:53;;;;;;;13.20;5.78;;;17.00;99.90;;;;;;5071348;28;20090;-78
2021/03/28 13:36:30;;;;;;;11.23;5.75;;;17.00;99.90;;;;;;5073444;28;20497;-75
2021/03/28 13:39:08;;;;;;;14.93;6.45;;;17.00;99.90;;;;;;5072602;28;20038;-79
2021/03/28 13:41:37;;;;;;;9.75;6.28;;;17.00;99.90;;;;;;5072495;28;20044;-75
2021/03/28 13:44:09;;;;;;;11.07;6.68;;;17.10;99.90;;;;;;5068525;28;20111;-79
2021/03/28 13:46:47;;;;;;;13.30;7.55;;;17.10;99.90;;;;;;5061361;28;20044;-79
2021/03/28 13:49:40;;;;;;;11.55;6.38;;;17.00;99.90;;;;;;5072713;28;20032;-77
2021/03/28 13:52:15;;;;;;;9.77;6.13;;;17.00;99.90;;;;;;5071496;28;20029;-74
2021/03/28 13:54:47;;;;;;;12.63;6.43;;;16.90;99.90;;;;;;5062540;28;20076;-75
2021/03/28 13:57:16;;;;;;;12.00;6.65;;;17.00;99.90;;;;;;5072337;28;20035;-78
2021/03/28 14:00:11;;;;;;;11.65;6.50;;;17.10;99.90;;;;;;5069335;28;20067;-76
2021/03/28 14:02:39;;;;;;;12.80;6.68;;;17.20;99.90;;;;;;5071367;28;20385;-75